Time;durP1;ratioP1;P1;durP2;ratioP2;P2;SDS_P1;SDS_P2;PMS_P1;PMS_P2;Temp;Humidity;BMP_temperature;BMP_pressure;BME280_temperature;BME280_humidity;BME280_pressure;Samples;Min_cycle;Max_cycle;Signal;HPM_P1;HPM_P2
2023/07/14 00:00:15;;;;;;;11.05;6.47;;;15.40;99.90;;;;;;6245054;23;20322;-64
2023/07/14 00:02:42;;;;;;;12.90;6.55;;;15.40;99.90;;;;;;6244538;23;20024;-64
2023/07/14 00:05:15;;;;;;;12.68;5.93;;;15.30;99.90;;;;;;6244934;23;20354;-63
2023/07/14 00:07:42;;;;;;;14.43;6.50;;;15.30;99.90;;;;;;6243321;23;20020;-64
2023/07/14 00:10:15;;;;;;;16.52;6.35;;;15.20;99.90;;;;;;6244271;23;20024;-64
2023/07/14 00:12:42;;;;;;;12.95;6.85;;;15.10;99.90;;;;;;6243443;23;20046;-64
2023/07/14 00:15:10;;;;;;;14.18;6.45;;;15.10;99.90;;;;;;6243012;23;20031;-64
2023/07/14 00:17:38;;;;;;;11.98;7.15;;;15.10;99.90;;;;;;6244241;22;20026;-64
2023/07/14 00:20:30;;;;;;;12.00;7.72;;;15.10;99.90;;;;;;6243159;23;20401;-64
2023/07/14 00:22:58;;;;;;;13.77;8.00;;;15.00;99.90;;;;;;6244998;22;20027;-64
2023/07/14 00:25:26;;;;;;;10.70;7.22;;;15.00;99.90;;;;;;6242935;23;20047;-64
2023/07/14 00:27:56;;;;;;;12.43;7.35;;;15.00;99.90;;;;;;6243194;23;20032;-64
2023/07/14 00:30:25;;;;;;;10.48;7.43;;;15.10;99.90;;;;;;6242287;23;20024;-64
2023/07/14 00:32:56;;;;;;;12.38;8.45;;;15.00;99.90;;;;;;6243376;23;20035;-65
2023/07/14 00:35:25;;;;;;;13.60;7.45;;;15.00;99.90;;;;;;6243071;23;20055;-63
2023/07/14 00:37:54;;;;;;;12.57;7.20;;;15.00;99.90;;;;;;6244281;23;20125;-64
2023/07/14 00:40:24;;;;;;;11.88;8.10;;;15.00;99.90;;;;;;6243082;23;20035;-63
2023/07/14 00:42:55;;;;;;;11.40;7.47;;;14.90;99.90;;;;;;6191253;23;1218892;-65
2023/07/14 00:45:25;;;;;;;10.60;7.55;;;14.90;99.90;;;;;;6245509;23;20039;-65
2023/07/14 00:47:57;;;;;;;12.20;8.00;;;14.90;99.90;;;;;;6244638;23;20374;-65
2023/07/14 00:50:33;;;;;;;13.18;8.10;;;14.80;99.90;;;;;;6244759;23;20028;-65
2023/07/14 00:53:04;;;;;;;14.57;7.75;;;14.80;99.90;;;;;;6244017;23;20020;-64
2023/07/14 00:55:38;;;;;;;11.60;8.23;;;14.80;99.90;;;;;;6246396;23;20342;-64
2023/07/14 00:58:16;;;;;;;12.07;8.13;;;14.80;99.90;;;;;;6246474;23;20024;-63
2023/07/14 01:01:08;;;;;;;16.80;9.00;;;14.80;99.90;;;;;;6246411;23;20341;-64
2023/07/14 01:03:39;;;;;;;12.88;7.60;;;14.80;99.90;;;;;;6246414;22;20020;-64
2023/07/14 01:06:11;;;;;;;12.93;8.13;;;14.70;99.90;;;;;;6243590;23;20324;-63
2023/07/14 01:08:46;;;;;;;17.50;8.25;;;14.70;99.90;;;;;;6246052;23;20020;-64
2023/07/14 01:11:15;;;;;;;12.63;8.45;;;14.70;99.90;;;;;;6244411;23;20028;-63
2023/07/14 01:13:43;;;;;;;13.13;8.60;;;14.70;99.90;;;;;;6245556;23;20027;-64
2023/07/14 01:16:14;;;;;;;12.98;8.45;;;14.70;99.90;;;;;;6244208;23;20030;-63
2023/07/14 01:18:43;;;;;;;12.45;8.68;;;14.70;99.90;;;;;;6246209;22;20060;-63
2023/07/14 01:21:12;;;;;;;13.65;8.48;;;14.70;99.90;;;;;;6245472;23;20067;-64
2023/07/14 01:23:59;;;;;;;12.48;8.77;;;14.60;99.90;;;;;;6244300;23;20027;-60
2023/07/14 01:26:42;;;;;;;13.52;8.98;;;14.60;99.90;;;;;;6245339;22;20020;-61
2023/07/14 01:29:09;;;;;;;12.05;8.73;;;14.60;99.90;;;;;;6246259;23;20031;-60
2023/07/14 01:31:36;;;;;;;12.73;9.32;;;14.50;99.90;;;;;;6244068;23;20027;-61
2023/07/14 01:34:03;;;;;;;18.13;9.73;;;14.50;99.90;;;;;;6245444;23;20052;-65
2023/07/14 01:36:31;;;;;;;13.63;9.65;;;14.50;99.90;;;;;;6245987;23;20055;-65
2023/07/14 01:38:58;;;;;;;12.20;9.20;;;14.50;99.90;;;;;;6244226;23;20020;-64
2023/07/14 01:41:25;;;;;;;14.70;9.18;;;14.40;99.90;;;;;;6245170;23;20067;-65
2023/07/14 01:43:55;;;;;;;15.77;9.40;;;14.40;99.90;;;;;;6245485;23;20063;-64
2023/07/14 01:46:23;;;;;;;13.50;9.43;;;14.30;99.90;;;;;;6245963;23;20082;-65
2023/07/14 01:49:03;;;;;;;14.20;9.30;;;14.30;99.90;;;;;;6245260;23;20027;-65
2023/07/14 01:51:35;;;;;;;16.05;10.60;;;14.30;99.90;;;;;;6244044;23;20028;-65
2023/07/14 01:54:06;;;;;;;13.85;10.35;;;14.20;99.90;;;;;;6244172;23;20071;-65
2023/07/14 01:56:35;;;;;;;12.32;9.73;;;14.20;99.90;;;;;;6243215;23;20056;-66
2023/07/14 01:59:08;;;;;;;16.05;10.00;;;14.20;99.90;;;;;;6243950;23;20020;-66
2023/07/14 02:01:39;;;;;;;15.10;9.82;;;14.20;99.90;;;;;;6244935;23;20462;-65
2023/07/14 02:04:10;;;;;;;14.68;9.85;;;14.20;99.90;;;;;;6244189;23;20026;-65
2023/07/14 02:06:37;;;;;;;16.67;10.00;;;14.20;99.90;;;;;;6244062;23;20051;-64
2023/07/14 02:09:04;;;;;;;13.70;9.48;;;14.10;99.90;;;;;;6245141;23;20024;-65
2023/07/14 02:11:31;;;;;;;13.45;9.95;;;14.10;99.90;;;;;;6245731;22;20030;-66
2023/07/14 02:13:59;;;;;;;14.38;10.40;;;14.10;99.90;;;;;;6245753;23;20055;-66
2023/07/14 02:16:27;;;;;;;18.02;11.75;;;14.10;99.90;;;;;;6243345;23;20055;-66
2023/07/14 02:18:55;;;;;;;16.17;9.85;;;14.10;99.90;;;;;;6245619;23;20513;-65
2023/07/14 02:21:26;;;;;;;13.10;10.90;;;14.10;99.90;;;;;;6245667;23;20031;-65
2023/07/14 02:23:54;;;;;;;16.23;11.07;;;14.10;99.90;;;;;;6244947;23;20028;-65
2023/07/14 02:26:27;;;;;;;17.95;11.52;;;14.10;99.90;;;;;;6243935;23;20016;-65
2023/07/14 02:28:56;;;;;;;18.95;12.57;;;14.20;99.90;;;;;;6243727;23;20026;-65
2023/07/14 02:31:29;;;;;;;15.95;11.25;;;14.20;99.90;;;;;;6242912;23;20024;-66
2023/07/14 02:33:58;;;;;;;17.05;11.43;;;14.20;99.90;;;;;;6243784;23;20021;-66
2023/07/14 02:36:33;;;;;;;17.15;11.45;;;14.20;99.90;;;;;;6245440;23;20031;-65
2023/07/14 02:39:01;;;;;;;19.70;11.82;;;14.20;99.90;;;;;;6243269;23;20024;-65
2023/07/14 02:41:30;;;;;;;15.60;11.30;;;14.20;99.90;;;;;;6243508;23;20027;-66
2023/07/14 02:44:02;;;;;;;18.10;11.57;;;14.20;99.90;;;;;;6242692;23;20409;-65
2023/07/14 02:46:35;;;;;;;15.95;11.02;;;14.20;99.90;;;;;;6243699;23;20653;-65
2023/07/14 02:49:04;;;;;;;19.00;11.40;;;14.20;99.90;;;;;;6245494;23;20034;-65
2023/07/14 02:51:31;;;;;;;14.13;10.73;;;14.20;99.90;;;;;;6244624;23;20027;-64
2023/07/14 02:53:58;;;;;;;19.13;12.40;;;14.30;99.90;;;;;;6243577;23;20062;-65
2023/07/14 02:56:25;;;;;;;22.15;11.70;;;14.20;99.90;;;;;;6243428;23;20047;-65
2023/07/14 02:58:52;;;;;;;17.25;11.85;;;14.20;99.90;;;;;;6244761;23;20065;-65
2023/07/14 03:01:20;;;;;;;19.75;11.75;;;14.20;99.90;;;;;;6243481;23;20154;-65
2023/07/14 03:03:48;;;;;;;17.50;12.30;;;14.20;99.90;;;;;;6245446;23;20353;-65
2023/07/14 03:06:19;;;;;;;20.30;12.15;;;14.20;99.90;;;;;;6242660;23;20016;-65
2023/07/14 03:08:46;;;;;;;17.67;12.13;;;14.20;99.90;;;;;;6243485;23;20024;-66
2023/07/14 03:11:13;;;;;;;17.80;11.60;;;14.20;99.90;;;;;;6243377;23;20142;-65
2023/07/14 03:13:40;;;;;;;15.75;11.57;;;14.10;99.90;;;;;;6244470;23;20027;-67
2023/07/14 03:16:08;;;;;;;17.70;11.35;;;14.10;99.90;;;;;;6245167;23;20024;-66
2023/07/14 03:18:35;;;;;;;19.55;11.27;;;14.10;99.90;;;;;;6245140;23;20027;-66
2023/07/14 03:21:04;;;;;;;14.23;10.90;;;14.00;99.90;;;;;;6242504;23;20024;-66
2023/07/14 03:23:34;;;;;;;15.70;11.70;;;14.00;99.90;;;;;;6244976;23;20103;-66
2023/07/14 03:26:05;;;;;;;19.10;11.70;;;14.00;99.90;;;;;;6242698;23;20079;-65
2023/07/14 03:28:33;;;;;;;15.07;11.45;;;14.00;99.90;;;;;;6243066;23;20259;-66
2023/07/14 03:31:01;;;;;;;16.83;11.10;;;14.00;99.90;;;;;;6244487;23;20354;-66
2023/07/14 03:33:28;;;;;;;16.00;11.65;;;14.00;99.90;;;;;;6246314;23;20070;-65
2023/07/14 03:35:56;;;;;;;16.70;11.02;;;14.00;99.90;;;;;;6245262;23;20020;-67
2023/07/14 03:38:23;;;;;;;17.42;11.23;;;13.90;99.90;;;;;;6245357;23;20024;-66
2023/07/14 03:40:52;;;;;;;15.05;10.70;;;13.90;99.90;;;;;;6244511;23;20078;-61
2023/07/14 03:43:19;;;;;;;12.40;9.30;;;13.90;99.90;;;;;;6243176;23;20028;-61
2023/07/14 03:45:46;;;;;;;17.88;10.98;;;14.20;99.90;;;;;;6245421;23;20385;-61
2023/07/14 03:48:13;;;;;;;14.30;9.13;;;14.30;99.90;;;;;;6243188;23;20070;-60
2023/07/14 03:50:40;;;;;;;15.95;9.43;;;14.70;99.90;;;;;;6244361;23;20020;-61
2023/07/14 03:53:07;;;;;;;16.13;8.75;;;14.80;99.90;;;;;;6245635;23;20059;-61
2023/07/14 03:55:34;;;;;;;12.43;8.85;;;14.80;99.90;;;;;;6245106;22;20024;-60
2023/07/14 03:58:03;;;;;;;10.95;9.07;;;14.80;99.90;;;;;;6245499;23;20062;-60
2023/07/14 04:00:30;;;;;;;16.30;9.55;;;15.00;99.90;;;;;;6245978;23;20020;-62
2023/07/14 04:02:57;;;;;;;15.30;9.48;;;14.90;99.90;;;;;;6244730;23;20020;-62
2023/07/14 04:05:24;;;;;;;13.70;8.35;;;14.80;99.90;;;;;;6246061;22;20395;-62
2023/07/14 04:07:51;;;;;;;11.50;9.07;;;15.10;99.90;;;;;;6245596;22;20022;-61
2023/07/14 04:10:19;;;;;;;10.88;7.30;;;15.00;99.90;;;;;;6243330;23;20038;-61
2023/07/14 04:12:48;;;;;;;11.40;8.75;;;15.10;99.90;;;;;;6243726;23;20074;-61
2023/07/14 04:15:17;;;;;;;9.30;6.32;;;15.10;99.90;;;;;;6244729;23;20027;-61
2023/07/14 04:17:44;;;;;;;13.30;8.10;;;15.30;99.90;;;;;;6245721;23;20020;-60
2023/07/14 04:20:12;;;;;;;12.35;7.38;;;15.30;99.90;;;;;;6243709;23;20335;-61
2023/07/14 04:22:39;;;;;;;13.82;8.25;;;15.50;99.90;;;;;;6244831;23;20026;-61
2023/07/14 04:25:09;;;;;;;15.25;7.95;;;15.40;99.90;;;;;;6245084;23;20470;-61
2023/07/14 04:27:37;;;;;;;13.90;7.65;;;15.50;99.90;;;;;;6243833;23;20021;-61
2023/07/14 04:30:07;;;;;;;9.80;5.90;;;15.40;99.90;;;;;;6242811;23;20520;-61
2023/07/14 04:32:36;;;;;;;13.90;8.27;;;15.50;99.90;;;;;;6245775;23;20035;-66
2023/07/14 04:35:06;;;;;;;10.15;6.35;;;15.60;99.90;;;;;;6244918;23;20070;-66
2023/07/14 04:37:33;;;;;;;10.55;6.05;;;15.80;99.90;;;;;;6244291;23;20407;-66
2023/07/14 04:40:00;;;;;;;7.63;5.97;;;15.70;99.90;;;;;;6244990;23;20055;-67
2023/07/14 04:42:27;;;;;;;7.57;5.80;;;15.70;99.90;;;;;;6243553;23;20482;-67
2023/07/14 04:44:55;;;;;;;7.90;5.22;;;15.70;99.90;;;;;;6243508;22;20024;-67
2023/07/14 04:47:22;;;;;;;12.52;6.53;;;15.80;99.90;;;;;;6243934;23;20023;-61
2023/07/14 04:49:50;;;;;;;8.50;5.35;;;15.70;99.90;;;;;;6245121;22;20048;-61
2023/07/14 04:52:18;;;;;;;10.20;6.82;;;15.80;99.90;;;;;;6244443;23;20024;-60
2023/07/14 04:54:45;;;;;;;8.07;5.32;;;15.70;99.90;;;;;;6244737;23;20062;-60
2023/07/14 04:57:12;;;;;;;16.20;6.75;;;15.80;99.90;;;;;;6245692;23;20052;-61
2023/07/14 04:59:40;;;;;;;10.85;6.88;;;15.80;99.90;;;;;;6244454;23;20046;-61
2023/07/14 05:02:07;;;;;;;11.32;6.38;;;15.70;99.90;;;;;;6245065;23;20024;-60
2023/07/14 05:04:42;;;;;;;11.25;6.82;;;15.60;99.90;;;;;;6242208;23;20024;-61
2023/07/14 05:07:10;;;;;;;13.02;7.15;;;15.50;99.90;;;;;;6245331;23;20028;-61
2023/07/14 05:09:37;;;;;;;11.23;6.80;;;15.40;99.90;;;;;;6244835;23;20059;-60
2023/07/14 05:12:07;;;;;;;8.52;5.75;;;15.40;99.90;;;;;;6242399;23;20035;-61
2023/07/14 05:14:34;;;;;;;11.48;6.60;;;15.50;99.90;;;;;;6243235;23;20039;-62
2023/07/14 05:17:01;;;;;;;10.05;6.60;;;15.50;99.90;;;;;;6245445;22;20020;-61
2023/07/14 05:19:28;;;;;;;14.77;6.55;;;15.50;99.90;;;;;;6244152;23;20403;-60
2023/07/14 05:21:55;;;;;;;11.52;6.60;;;15.60;99.90;;;;;;6242906;23;20034;-61
2023/07/14 05:24:23;;;;;;;10.50;6.47;;;15.70;99.90;;;;;;6245012;23;20052;-61
2023/07/14 05:26:50;;;;;;;11.60;6.28;;;15.80;99.90;;;;;;6242096;23;20446;-61
2023/07/14 05:29:17;;;;;;;15.57;6.53;;;15.90;99.90;;;;;;6244677;22;20020;-61
2023/07/14 05:31:44;;;;;;;11.50;6.30;;;16.00;99.90;;;;;;6242621;23;20028;-61
2023/07/14 05:34:12;;;;;;;12.13;6.15;;;16.10;99.90;;;;;;6242392;23;20074;-61
2023/07/14 05:36:39;;;;;;;10.98;5.88;;;16.10;99.90;;;;;;6244893;22;20095;-61
2023/07/14 05:39:07;;;;;;;10.68;6.00;;;16.30;99.90;;;;;;6244013;23;20024;-61
2023/07/14 05:41:35;;;;;;;10.40;5.35;;;16.30;99.90;;;;;;6243949;23;20024;-61
2023/07/14 05:44:03;;;;;;;10.82;5.15;;;16.50;99.90;;;;;;6242353;23;20048;-62
2023/07/14 05:46:30;;;;;;;11.38;5.85;;;16.50;99.90;;;;;;6245130;23;20026;-62
2023/07/14 05:48:57;;;;;;;8.43;5.47;;;16.60;99.90;;;;;;6244120;22;20024;-60
2023/07/14 05:51:25;;;;;;;11.50;6.10;;;16.80;99.90;;;;;;6245086;23;20078;-61
2023/07/14 05:53:52;;;;;;;6.55;5.05;;;16.90;99.90;;;;;;6235668;23;20071;-61
2023/07/14 05:56:19;;;;;;;11.00;5.35;;;17.00;99.90;;;;;;6240268;22;20089;-61
2023/07/14 05:58:47;;;;;;;9.07;4.93;;;17.10;99.90;;;;;;6244238;22;20027;-61
2023/07/14 06:01:15;;;;;;;8.68;4.63;;;17.30;99.90;;;;;;6244040;23;20024;-62
2023/07/14 06:03:42;;;;;;;11.32;4.95;;;17.40;99.90;;;;;;6242761;23;20027;-61
2023/07/14 06:06:09;;;;;;;12.20;5.63;;;17.60;99.90;;;;;;6245037;22;20021;-61
2023/07/14 06:08:38;;;;;;;9.40;5.47;;;17.70;99.90;;;;;;6243413;23;20020;-61
2023/07/14 06:11:05;;;;;;;9.23;4.70;;;17.80;99.90;;;;;;6244882;22;20020;-61
2023/07/14 06:13:33;;;;;;;8.63;4.30;;;18.00;99.90;;;;;;6244519;22;20029;-61
2023/07/14 06:16:02;;;;;;;9.50;4.70;;;18.20;99.90;;;;;;6243843;22;20019;-60
2023/07/14 06:18:29;;;;;;;11.75;4.72;;;18.40;99.90;;;;;;6242198;23;20347;-61
2023/07/14 06:20:58;;;;;;;10.68;4.50;;;18.50;99.90;;;;;;6242901;23;20020;-61
2023/07/14 06:23:26;;;;;;;8.77;5.15;;;18.70;99.90;;;;;;6243062;22;20024;-62
2023/07/14 06:25:54;;;;;;;10.05;4.78;;;18.80;99.90;;;;;;6242743;23;20024;-61
2023/07/14 06:28:21;;;;;;;9.75;4.20;;;18.90;99.90;;;;;;6242069;23;20492;-61
2023/07/14 06:30:48;;;;;;;11.88;4.70;;;19.10;99.90;;;;;;6242087;23;20347;-61
2023/07/14 06:33:16;;;;;;;8.43;4.25;;;19.10;99.90;;;;;;6241617;23;20047;-60
2023/07/14 06:35:43;;;;;;;7.80;4.60;;;19.30;99.90;;;;;;6244103;23;20103;-61
2023/07/14 06:38:10;;;;;;;6.55;3.42;;;19.40;99.90;;;;;;6243546;22;20020;-61
2023/07/14 06:40:37;;;;;;;6.18;3.78;;;19.60;99.90;;;;;;6242300;23;20024;-61
2023/07/14 06:43:07;;;;;;;8.50;4.40;;;19.70;99.90;;;;;;6242377;23;20063;-60
2023/07/14 06:45:34;;;;;;;14.57;3.97;;;19.90;99.90;;;;;;6244189;23;20454;-60
2023/07/14 06:48:02;;;;;;;8.57;4.82;;;19.90;99.90;;;;;;6243853;22;20473;-61
2023/07/14 06:50:30;;;;;;;10.32;4.03;;;20.00;99.90;;;;;;6243490;23;20075;-62
2023/07/14 06:52:57;;;;;;;7.03;3.75;;;20.20;99.90;;;;;;6242153;23;20111;-61
2023/07/14 06:55:24;;;;;;;8.57;3.67;;;20.40;99.90;;;;;;6243355;23;20028;-61
2023/07/14 06:57:52;;;;;;;7.60;3.53;;;20.50;99.90;;;;;;6241611;23;20024;-61
2023/07/14 07:00:21;;;;;;;9.23;3.35;;;20.70;99.90;;;;;;6243926;23;20039;-61
2023/07/14 07:02:48;;;;;;;10.95;4.07;;;21.00;99.90;;;;;;6244319;22;20327;-60
2023/07/14 07:05:15;;;;;;;7.70;4.18;;;21.20;99.90;;;;;;6241523;23;20102;-61
2023/07/14 07:07:44;;;;;;;4.88;3.35;;;21.40;99.90;;;;;;6246602;23;20020;-62
2023/07/14 07:10:11;;;;;;;6.40;3.50;;;21.90;99.90;;;;;;6245649;23;20047;-61
2023/07/14 07:12:38;;;;;;;5.35;3.00;;;22.10;99.90;;;;;;6243481;23;20095;-62
2023/07/14 07:15:06;;;;;;;6.60;3.03;;;22.30;99.90;;;;;;6245770;23;20106;-61
2023/07/14 07:17:33;;;;;;;5.55;2.70;;;22.50;99.90;;;;;;6246126;23;20357;-61
2023/07/14 07:20:01;;;;;;;6.45;2.65;;;22.70;99.90;;;;;;6243887;23;20510;-62
2023/07/14 07:22:28;;;;;;;9.07;3.00;;;23.00;99.90;;;;;;6245515;23;20024;-61
2023/07/14 07:24:56;;;;;;;8.25;3.75;;;23.20;99.90;;;;;;6245447;23;20397;-61
2023/07/14 07:27:23;;;;;;;4.70;2.72;;;23.40;99.90;;;;;;6245702;23;20468;-61
2023/07/14 07:29:50;;;;;;;6.63;2.97;;;23.50;99.90;;;;;;6246089;23;20058;-61
2023/07/14 07:32:17;;;;;;;6.65;3.42;;;23.60;99.90;;;;;;6243685;23;20055;-62
2023/07/14 07:34:44;;;;;;;8.07;3.20;;;23.70;99.90;;;;;;6246031;23;20382;-62
2023/07/14 07:37:12;;;;;;;8.52;3.45;;;23.70;99.90;;;;;;6245942;23;20020;-62
2023/07/14 07:39:39;;;;;;;7.18;3.13;;;23.80;99.90;;;;;;6243610;23;20397;-61
2023/07/14 07:42:09;;;;;;;5.43;3.00;;;23.90;99.90;;;;;;6244165;23;20048;-61
2023/07/14 07:44:36;;;;;;;5.22;2.92;;;23.90;99.90;;;;;;6245528;23;20446;-62
2023/07/14 07:47:03;;;;;;;6.85;3.33;;;24.20;99.90;;;;;;6243538;23;20028;-61
2023/07/14 07:49:30;;;;;;;4.72;3.08;;;24.20;99.90;;;;;;6245936;22;20020;-60
2023/07/14 07:51:57;;;;;;;5.75;3.42;;;24.40;99.90;;;;;;6246063;22;20059;-62
2023/07/14 07:54:24;;;;;;;5.70;3.35;;;24.60;99.90;;;;;;6244270;22;20032;-61
2023/07/14 07:56:51;;;;;;;6.95;3.40;;;24.70;99.90;;;;;;6243141;22;20024;-62
2023/07/14 07:59:20;;;;;;;7.00;4.32;;;24.90;99.90;;;;;;6242581;23;20099;-61
2023/07/14 08:01:47;;;;;;;9.50;5.00;;;24.90;99.40;;;;;;6245069;23;20108;-62
2023/07/14 08:04:15;;;;;;;8.25;3.80;;;25.20;99.30;;;;;;6243979;23;20493;-62
2023/07/14 08:06:42;;;;;;;7.25;4.78;;;25.40;99.20;;;;;;6245802;23;20098;-62
2023/07/14 08:09:10;;;;;;;8.10;5.10;;;25.50;98.10;;;;;;6244694;23;20052;-63
2023/07/14 08:11:37;;;;;;;6.28;4.05;;;25.60;97.50;;;;;;6245258;23;20063;-62
2023/07/14 08:14:17;;;;;;;8.82;4.10;;;25.00;97.00;;;;;;6243589;23;20032;-62
2023/07/14 08:16:46;;;;;;;9.18;4.32;;;24.90;96.80;;;;;;6245217;23;20028;-62
2023/07/14 08:19:14;;;;;;;9.40;3.85;;;25.30;97.40;;;;;;6245677;23;20020;-62
2023/07/14 08:21:41;;;;;;;6.47;3.78;;;25.60;97.10;;;;;;6242788;23;20031;-62
2023/07/14 08:24:10;;;;;;;7.18;4.20;;;26.20;96.50;;;;;;6243557;23;20443;-62
2023/07/14 08:26:38;;;;;;;7.38;3.97;;;26.10;95.50;;;;;;6243926;23;20030;-62
2023/07/14 08:29:06;;;;;;;8.30;3.60;;;26.40;95.20;;;;;;6244445;23;20327;-62
2023/07/14 08:31:33;;;;;;;6.07;3.80;;;26.80;95.20;;;;;;6245553;23;20099;-63
2023/07/14 08:34:01;;;;;;;5.53;3.05;;;27.00;93.90;;;;;;6245173;23;20084;-63
2023/07/14 08:36:29;;;;;;;6.22;2.95;;;27.10;93.50;;;;;;6245278;23;20103;-62
2023/07/14 08:38:56;;;;;;;4.95;2.70;;;27.30;93.00;;;;;;6244173;22;20470;-62
2023/07/14 08:41:29;;;;;;;7.18;3.03;;;27.00;92.70;;;;;;6243733;23;20103;-62
2023/07/14 08:44:28;;;;;;;7.65;2.85;;;27.10;91.60;;;;;;6243899;23;20331;-61
2023/07/14 08:47:04;;;;;;;4.15;2.65;;;27.40;91.10;;;;;;6243359;23;20024;-63
2023/07/14 08:49:41;;;;;;;6.30;2.40;;;27.20;91.40;;;;;;6241982;23;20139;-62
2023/07/14 08:52:16;;;;;;;4.43;2.60;;;27.30;91.20;;;;;;6245380;23;20127;-61
2023/07/14 08:54:50;;;;;;;4.30;2.20;;;27.30;90.40;;;;;;6245294;23;20024;-62
2023/07/14 08:57:20;;;;;;;5.00;2.30;;;27.60;90.80;;;;;;6242976;23;20466;-61
2023/07/14 08:59:49;;;;;;;3.75;2.13;;;27.60;90.60;;;;;;6244938;23;20357;-62
2023/07/14 09:02:22;;;;;;;6.70;2.30;;;27.80;90.00;;;;;;6243312;23;20027;-61
2023/07/14 09:04:59;;;;;;;6.25;2.50;;;27.60;89.00;;;;;;6244108;23;20457;-61
2023/07/14 09:07:26;;;;;;;3.92;2.33;;;27.30;89.10;;;;;;6245116;23;20323;-60
2023/07/14 09:09:53;;;;;;;5.70;2.80;;;27.50;90.40;;;;;;6245254;23;20025;-61
2023/07/14 09:12:28;;;;;;;5.47;2.15;;;27.60;90.40;;;;;;6244524;23;20327;-61
2023/07/14 09:15:02;;;;;;;4.38;2.63;;;27.20;89.80;;;;;;6244971;23;20028;-62
2023/07/14 09:17:43;;;;;;;5.22;2.53;;;26.50;90.10;;;;;;6244775;23;20024;-62
2023/07/14 09:20:30;;;;;;;4.50;2.55;;;25.90;90.30;;;;;;6244898;23;20024;-63
2023/07/14 09:23:14;;;;;;;4.63;2.28;;;25.00;91.10;;;;;;6244818;23;20062;-62
2023/07/14 09:25:48;;;;;;;5.82;2.28;;;24.60;92.00;;;;;;6243873;23;20030;-62
2023/07/14 09:28:20;;;;;;;4.55;2.40;;;24.50;92.10;;;;;;6244496;23;20091;-62
2023/07/14 09:30:48;;;;;;;4.65;1.98;;;24.40;91.90;;;;;;6244867;23;20134;-63
2023/07/14 09:33:18;;;;;;;3.28;2.00;;;25.20;91.30;;;;;;6244356;23;20023;-62
2023/07/14 09:35:49;;;;;;;3.88;1.77;;;25.60;90.60;;;;;;6242511;23;20408;-62
2023/07/14 09:38:22;;;;;;;4.68;1.65;;;26.10;89.80;;;;;;6244829;23;20020;-62
2023/07/14 09:40:54;;;;;;;2.80;2.00;;;26.10;89.50;;;;;;6243884;23;20028;-62
2023/07/14 09:43:21;;;;;;;6.07;2.00;;;26.10;89.80;;;;;;6244182;23;20453;-61
2023/07/14 09:45:53;;;;;;;3.28;1.88;;;26.60;90.10;;;;;;6243495;23;20054;-61
2023/07/14 09:48:23;;;;;;;4.28;1.60;;;27.10;88.40;;;;;;6244483;23;20023;-62
2023/07/14 09:51:00;;;;;;;3.28;1.80;;;27.40;88.40;;;;;;6242690;23;20031;-61
2023/07/14 09:53:27;;;;;;;5.03;2.13;;;27.50;86.80;;;;;;6241581;23;20099;-62
2023/07/14 09:55:57;;;;;;;5.30;2.30;;;27.80;86.70;;;;;;6242728;23;20450;-62
2023/07/14 09:58:27;;;;;;;5.13;2.30;;;27.90;86.70;;;;;;6244359;23;20051;-62
2023/07/14 10:00:56;;;;;;;5.20;1.65;;;28.00;86.20;;;;;;6243758;23;20021;-61
2023/07/14 10:03:29;;;;;;;6.28;2.10;;;28.30;85.30;;;;;;6242506;23;20028;-62
2023/07/14 10:06:05;;;;;;;4.18;2.20;;;28.20;86.60;;;;;;6242793;23;20465;-62
2023/07/14 10:08:34;;;;;;;4.88;2.05;;;28.30;85.00;;;;;;6243539;23;20024;-62
2023/07/14 10:11:14;;;;;;;;;;;28.30;83.90;;;;;;6244713;23;20390;-62
2023/07/14 10:13:46;;;;;;;5.20;1.75;;;28.50;83.90;;;;;;6243397;23;20257;-61
2023/07/14 10:16:16;;;;;;;3.92;1.70;;;29.00;84.00;;;;;;6243655;23;20026;-62
2023/07/14 10:18:52;;;;;;;2.80;1.80;;;28.70;82.70;;;;;;6244418;23;20024;-62
2023/07/14 10:21:27;;;;;;;3.75;1.98;;;28.60;83.30;;;;;;6243726;23;20518;-61
2023/07/14 10:23:58;;;;;;;4.93;2.17;;;27.90;84.40;;;;;;6242237;23;20358;-61
2023/07/14 10:26:29;;;;;;;4.32;2.30;;;27.40;85.00;;;;;;6242568;23;20058;-62
2023/07/14 10:28:57;;;;;;;5.65;2.00;;;27.50;85.30;;;;;;6243202;23;20024;-62
2023/07/14 10:31:33;;;;;;;4.10;2.05;;;27.30;84.90;;;;;;6244354;23;20020;-62
2023/07/14 10:34:18;;;;;;;4.32;2.38;;;27.70;84.70;;;;;;6244154;22;20020;-61
2023/07/14 10:36:47;;;;;;;3.75;2.10;;;28.00;83.80;;;;;;6243457;23;20103;-62
2023/07/14 10:39:22;;;;;;;4.50;2.58;;;28.30;83.90;;;;;;6242609;23;20095;-61
2023/07/14 10:41:50;;;;;;;3.15;1.98;;;28.40;83.10;;;;;;6241866;23;20074;-61
2023/07/14 10:44:26;;;;;;;4.90;2.20;;;28.60;82.90;;;;;;6241678;23;20027;-61
2023/07/14 10:46:56;;;;;;;3.75;2.17;;;28.40;82.20;;;;;;6242368;23;20028;-61
2023/07/14 10:49:26;;;;;;;3.97;2.25;;;27.80;83.60;;;;;;6243266;23;20020;-61
2023/07/14 10:52:00;;;;;;;6.45;2.63;;;27.70;83.70;;;;;;6242420;23;20036;-62
2023/07/14 10:54:41;;;;;;;5.13;2.15;;;28.30;81.50;;;;;;6242164;23;20070;-62
2023/07/14 10:57:18;;;;;;;3.88;2.28;;;28.70;81.30;;;;;;6241452;23;20035;-62
2023/07/14 10:59:50;;;;;;;5.03;2.53;;;28.10;81.30;;;;;;6243957;23;20025;-62
2023/07/14 11:02:22;;;;;;;4.15;2.58;;;27.30;83.10;;;;;;6242650;23;20074;-62
2023/07/14 11:04:55;;;;;;;4.18;2.17;;;26.80;83.70;;;;;;6242685;23;20024;-62
2023/07/14 11:07:29;;;;;;;3.95;2.40;;;26.70;84.90;;;;;;6244210;23;20020;-62
2023/07/14 11:09:56;;;;;;;4.50;2.60;;;26.60;84.30;;;;;;6241848;23;20099;-62
2023/07/14 11:12:38;;;;;;;4.13;2.30;;;26.70;84.10;;;;;;6243650;23;20024;-61
2023/07/14 11:15:19;;;;;;;6.10;2.40;;;26.70;84.40;;;;;;6243874;22;20039;-62
2023/07/14 11:17:55;;;;;;;3.85;2.45;;;26.40;85.80;;;;;;6243445;23;20028;-63
2023/07/14 11:20:32;;;;;;;4.72;2.08;;;26.40;86.40;;;;;;6244539;22;20020;-62
2023/07/14 11:23:14;;;;;;;6.03;2.55;;;26.50;86.30;;;;;;6243350;23;20020;-62
2023/07/14 11:25:49;;;;;;;5.18;2.40;;;26.70;85.30;;;;;;6243020;23;20454;-62
2023/07/14 11:28:33;;;;;;;4.82;3.00;;;26.40;85.20;;;;;;6243904;23;20028;-62
2023/07/14 11:31:04;;;;;;;6.15;3.00;;;26.80;85.70;;;;;;6244057;23;20051;-61
2023/07/14 11:33:36;;;;;;;;;;;26.90;85.00;;;;;;6243909;23;20020;-62
2023/07/14 11:36:08;;;;;;;4.68;2.13;;;26.90;84.30;;;;;;6244078;23;20305;-63
2023/07/14 11:38:46;;;;;;;4.95;2.40;;;26.40;84.90;;;;;;6243241;23;20062;-61
2023/07/14 11:41:16;;;;;;;4.22;2.63;;;26.30;85.60;;;;;;6242392;23;20496;-62
2023/07/14 11:43:43;;;;;;;4.57;2.33;;;26.30;85.60;;;;;;6243094;23;20060;-62
2023/07/14 11:46:17;;;;;;;3.75;2.30;;;26.30;85.30;;;;;;6243352;23;20020;-62
2023/07/14 11:49:01;;;;;;;6.45;2.60;;;26.40;85.80;;;;;;6242198;23;20032;-62
2023/07/14 11:51:47;;;;;;;5.97;2.35;;;27.10;84.70;;;;;;6244119;23;20450;-62
2023/07/14 11:54:19;;;;;;;4.95;2.88;;;27.50;82.10;;;;;;6244472;22;20095;-62
2023/07/14 11:57:01;;;;;;;6.00;2.53;;;27.30;83.30;;;;;;6245566;23;20028;-62
2023/07/14 11:59:29;;;;;;;6.93;3.15;;;27.10;83.50;;;;;;6243273;23;20024;-62
2023/07/14 12:02:00;;;;;;;5.00;2.55;;;27.00;83.10;;;;;;6246426;23;20465;-63
2023/07/14 12:04:29;;;;;;;6.03;2.50;;;27.00;83.70;;;;;;6243517;23;20020;-61
2023/07/14 12:07:15;;;;;;;7.07;2.58;;;27.00;84.00;;;;;;6244826;23;20099;-61
2023/07/14 12:10:08;;;;;;;4.15;2.28;;;27.20;83.30;;;;;;6244869;22;20047;-62
2023/07/14 12:12:36;;;;;;;4.20;2.47;;;27.10;82.80;;;;;;6243060;23;20323;-62
2023/07/14 12:15:04;;;;;;;6.10;2.67;;;27.20;84.00;;;;;;6244225;23;20438;-62
2023/07/14 12:17:48;;;;;;;5.13;2.45;;;27.40;83.50;;;;;;6246598;23;20390;-62
2023/07/14 12:20:37;;;;;;;5.30;2.10;;;27.30;82.40;;;;;;6246497;23;20070;-62
2023/07/14 12:23:21;;;;;;;4.63;2.35;;;27.50;82.40;;;;;;6246390;23;20450;-62
2023/07/14 12:25:53;;;;;;;3.63;2.28;;;27.30;83.20;;;;;;6246250;23;20047;-61
2023/07/14 12:28:26;;;;;;;3.70;2.42;;;26.80;84.00;;;;;;6243504;23;20528;-62
2023/07/14 12:30:54;;;;;;;8.32;3.00;;;26.40;84.20;;;;;;6246296;23;20399;-62
2023/07/14 12:33:24;;;;;;;8.30;2.80;;;26.10;84.90;;;;;;6245710;22;20039;-62
2023/07/14 12:35:52;;;;;;;5.00;3.42;;;25.90;85.20;;;;;;6245360;23;20020;-62
2023/07/14 12:38:21;;;;;;;4.65;3.13;;;25.70;85.50;;;;;;6246473;23;20373;-62
2023/07/14 12:40:51;;;;;;;4.55;2.45;;;25.60;85.40;;;;;;6246109;23;20020;-62
2023/07/14 12:43:32;;;;;;;8.38;2.90;;;25.40;86.20;;;;;;6245668;23;20024;-62
2023/07/14 12:46:01;;;;;;;6.43;3.42;;;25.20;87.60;;;;;;6244503;23;20480;-61
2023/07/14 12:48:30;;;;;;;5.10;2.92;;;24.90;87.70;;;;;;6244488;23;20513;-62
2023/07/14 12:50:57;;;;;;;5.53;3.20;;;24.60;87.60;;;;;;6243640;23;20028;-61
2023/07/14 12:53:28;;;;;;;6.65;3.40;;;24.50;87.90;;;;;;6246202;23;20020;-62
2023/07/14 12:56:03;;;;;;;8.02;3.47;;;24.60;88.20;;;;;;6245346;23;20032;-62